Highland Lake, New York
Current Conditions -  °F | °C
As of 6:35 PM on Tuesday 25 Nov 2014 (Local Time) from KMSV Reporting Station
Clear Clear  
Wind Chill: 36°   Ceiling: Unl
Heat Index: 39°   Visibility: 10mi
Dew Point: 25°   Wind: 5mph
Humidity: 56%   Direction: 250°WSW
Pressure: 30.04"   Gusts: NA
Location:  41.52°N, 74.85°W
Report Text: KMSV 252335Z AUTO 25004KT 10SM CLR 04/M04 A3004 RMK AO1
Loading
Personal Weather Stations






























Interactive Weather Map New forecast layout! Learn more

10-Day Weather Forecast

Advertisements
Track Severe Weather on mobile